createdAt,value
2022-08-02T00:00:03.931Z,49.5
2022-08-02T00:01:04.051Z,49.6
2022-08-02T00:02:30.375Z,50.4
2022-08-02T00:03:04.065Z,49.8
2022-08-02T00:04:04.199Z,50.1
2022-08-02T00:05:04.540Z,49.9
2022-08-02T00:06:04.385Z,50.0
2022-08-02T00:07:04.086Z,50.0
2022-08-02T00:08:04.790Z,50.1
2022-08-02T00:09:05.175Z,50.1
2022-08-02T00:10:04.245Z,50.2
2022-08-02T00:11:04.921Z,50.2
2022-08-02T00:12:05.023Z,50.3
2022-08-02T00:13:04.080Z,50.3
2022-08-02T00:14:04.093Z,50.2
2022-08-02T00:15:04.089Z,50.2
2022-08-02T00:16:04.092Z,50.0
2022-08-02T00:17:04.103Z,50.1
2022-08-02T00:18:04.105Z,50.0
2022-08-02T00:19:04.098Z,49.7
2022-08-02T00:20:04.075Z,50.0
2022-08-02T00:21:04.095Z,50.6
2022-08-02T00:22:04.080Z,50.2
2022-08-02T00:23:04.091Z,50.3
2022-08-02T00:24:28.493Z,50.6
2022-08-02T00:25:04.793Z,50.4
2022-08-02T00:26:04.839Z,50.0
2022-08-02T00:27:09.524Z,50.1
2022-08-02T00:28:04.086Z,49.7
2022-08-02T00:29:04.078Z,49.5
2022-08-02T00:30:04.373Z,49.3
2022-08-02T00:31:04.093Z,49.4
2022-08-02T00:32:04.083Z,49.5
2022-08-02T00:33:04.084Z,50.3
2022-08-02T00:34:05.650Z,51.1
2022-08-02T00:35:04.135Z,51.6
2022-08-02T00:36:04.087Z,52.1
2022-08-02T00:37:04.100Z,52.3
2022-08-02T00:38:04.088Z,52.7
2022-08-02T00:39:04.806Z,52.7
2022-08-02T00:40:04.073Z,52.7
2022-08-02T00:41:04.090Z,52.6
2022-08-02T00:42:04.082Z,52.7
2022-08-02T00:43:04.112Z,53.2
2022-08-02T00:44:04.120Z,53.2
2022-08-02T00:45:04.104Z,52.9
2022-08-02T00:46:04.159Z,52.5
2022-08-02T00:47:30.691Z,53.2
2022-08-02T00:48:05.171Z,52.3
2022-08-02T00:49:05.070Z,52.2
2022-08-02T00:50:04.957Z,51.9
2022-08-02T00:51:04.775Z,52.2
2022-08-02T00:52:04.793Z,52.0
2022-08-02T00:53:04.844Z,51.7
2022-08-02T00:54:04.766Z,51.8
2022-08-02T00:55:04.821Z,51.9
2022-08-02T00:56:05.064Z,52.6
2022-08-02T00:57:05.379Z,52.3
2022-08-02T00:58:05.161Z,52.6
2022-08-02T00:59:04.844Z,52.5
2022-08-02T01:00:05.331Z,52.8
2022-08-02T01:01:05.053Z,53.3
2022-08-02T01:02:04.749Z,53.2
2022-08-02T01:03:04.725Z,53.1
2022-08-02T01:04:04.796Z,52.9
2022-08-02T01:05:05.362Z,52.8
2022-08-02T01:06:12.087Z,52.7
2022-08-02T01:07:12.887Z,52.7
2022-08-02T01:08:04.751Z,52.8
2022-08-02T01:09:04.762Z,52.7
2022-08-02T01:10:04.719Z,53.0
2022-08-02T01:11:04.678Z,52.6
2022-08-02T01:12:04.813Z,52.5
2022-08-02T01:13:04.790Z,52.6
2022-08-02T01:14:04.857Z,52.9
2022-08-02T01:15:04.697Z,53.1
2022-08-02T01:16:04.755Z,53.1
2022-08-02T01:17:04.767Z,53.0
2022-08-02T01:18:04.779Z,52.4
2022-08-02T01:19:04.687Z,52.1
2022-08-02T01:20:04.756Z,52.0
2022-08-02T01:21:04.767Z,52.2
2022-08-02T01:22:04.848Z,52.7
2022-08-02T01:23:04.775Z,52.6
2022-08-02T01:24:04.665Z,52.1
2022-08-02T01:25:05.365Z,52.0
2022-08-02T01:26:04.779Z,52.0
2022-08-02T01:27:04.730Z,52.2
2022-08-02T01:28:04.990Z,52.4
2022-08-02T01:29:34.800Z,52.3
2022-08-02T01:30:57.702Z,54.0
2022-08-02T01:31:05.454Z,53.7
2022-08-02T01:32:05.381Z,52.8
2022-08-02T01:33:05.691Z,52.5
2022-08-02T01:34:04.789Z,52.0
2022-08-02T01:35:05.664Z,51.9
2022-08-02T01:36:04.790Z,52.0
2022-08-02T01:37:04.806Z,52.0
2022-08-02T01:38:04.792Z,51.9
2022-08-02T01:39:04.818Z,51.6
2022-08-02T01:40:06.741Z,51.3
2022-08-02T01:41:05.764Z,51.5
2022-08-02T01:42:04.800Z,52.0
2022-08-02T01:43:04.844Z,51.8
2022-08-02T01:44:04.864Z,51.6
2022-08-02T01:45:04.948Z,51.2
2022-08-02T01:46:04.823Z,52.0
2022-08-02T01:47:04.818Z,53.3
2022-08-02T01:48:05.759Z,53.5
2022-08-02T01:49:04.965Z,52.8
2022-08-02T01:50:05.760Z,52.6
2022-08-02T01:51:04.947Z,52.2
2022-08-02T01:52:04.849Z,51.9
2022-08-02T01:53:04.884Z,51.5
2022-08-02T01:54:04.840Z,51.5
2022-08-02T01:55:04.845Z,51.4
2022-08-02T01:56:04.876Z,51.9
2022-08-02T01:57:05.663Z,52.1
2022-08-02T01:58:04.932Z,52.8
2022-08-02T01:59:04.919Z,53.8
2022-08-02T02:00:05.030Z,54.8
2022-08-02T02:01:04.980Z,55.2
2022-08-02T02:02:04.882Z,55.3
2022-08-02T02:03:05.037Z,55.3
2022-08-02T02:04:04.893Z,55.4
2022-08-02T02:05:05.667Z,55.4
2022-08-02T02:06:04.985Z,55.7
2022-08-02T02:07:05.668Z,55.8
2022-08-02T02:08:04.958Z,55.7
2022-08-02T02:09:04.842Z,55.1
2022-08-02T02:10:04.928Z,54.5
2022-08-02T02:12:14.112Z,54.2
2022-08-02T02:12:18.739Z,56.1
2022-08-02T02:13:04.854Z,54.2
2022-08-02T02:14:04.805Z,53.8
2022-08-02T02:15:04.817Z,53.5
2022-08-02T02:16:04.827Z,53.0
2022-08-02T02:18:40.189Z,52.8
2022-08-02T02:18:44.163Z,54.9
2022-08-02T02:19:04.858Z,53.1
2022-08-02T02:20:05.785Z,52.9
2022-08-02T02:21:04.888Z,52.7
2022-08-02T02:22:05.687Z,52.8
2022-08-02T02:23:04.888Z,52.5
2022-08-02T02:24:07.192Z,52.2
2022-08-02T02:25:05.196Z,52.2
2022-08-02T02:26:04.981Z,52.6
2022-08-02T02:27:05.763Z,52.4
2022-08-02T02:28:04.916Z,52.0
2022-08-02T02:29:05.676Z,51.8
2022-08-02T02:30:04.967Z,52.5
2022-08-02T02:31:04.977Z,52.6
2022-08-02T02:32:05.004Z,53.0
2022-08-02T02:33:05.681Z,53.0
2022-08-02T02:34:04.858Z,52.8
2022-08-02T02:35:04.907Z,52.8
2022-08-02T02:36:04.935Z,52.8
2022-08-02T02:37:05.689Z,52.6
2022-08-02T02:38:04.894Z,52.7
2022-08-02T02:39:09.040Z,52.8
2022-08-02T02:40:04.836Z,52.9
2022-08-02T02:41:05.034Z,53.0
2022-08-02T02:42:04.826Z,53.0
2022-08-02T02:43:04.865Z,53.1
2022-08-02T02:44:05.021Z,53.5
2022-08-02T02:45:05.673Z,54.1
2022-08-02T02:46:04.898Z,53.9
2022-08-02T02:47:04.862Z,54.2
2022-08-02T02:48:04.896Z,54.0
2022-08-02T02:49:04.918Z,54.0
2022-08-02T02:50:04.848Z,53.7
2022-08-02T02:51:04.966Z,53.7
2022-08-02T02:52:04.952Z,53.7
2022-08-02T02:53:04.960Z,53.6
2022-08-02T02:54:32.903Z,53.6
2022-08-02T02:55:05.837Z,53.9
2022-08-02T02:56:05.682Z,53.8
2022-08-02T02:57:04.858Z,53.8
2022-08-02T02:58:05.200Z,53.8
2022-08-02T02:59:05.633Z,53.8
2022-08-02T03:00:04.958Z,54.0
2022-08-02T03:01:04.979Z,54.2
2022-08-02T03:02:04.900Z,53.9
2022-08-02T03:03:04.932Z,53.7
2022-08-02T03:04:04.778Z,53.6
2022-08-02T03:05:05.080Z,54.2
2022-08-02T03:06:15.657Z,54.0
2022-08-02T03:07:05.003Z,54.0
2022-08-02T03:08:04.970Z,54.0
2022-08-02T03:09:04.921Z,53.7
2022-08-02T03:10:04.837Z,53.8
2022-08-02T03:12:37.142Z,54.4
2022-08-02T03:13:03.824Z,53.1
2022-08-02T03:14:03.979Z,52.9
2022-08-02T03:15:03.825Z,52.7
2022-08-02T03:16:03.815Z,53.1
2022-08-02T03:17:03.815Z,53.2
2022-08-02T03:18:03.858Z,53.0
2022-08-02T03:19:03.815Z,53.1
2022-08-02T03:20:03.836Z,53.3
2022-08-02T03:21:03.817Z,53.4
2022-08-02T03:22:03.832Z,53.6
2022-08-02T03:23:03.823Z,53.8
2022-08-02T03:24:03.877Z,53.9
2022-08-02T03:25:03.832Z,53.7
2022-08-02T03:26:04.064Z,53.4
2022-08-02T03:27:03.826Z,53.5
2022-08-02T03:28:03.854Z,53.6
2022-08-02T03:29:10.197Z,53.1
2022-08-02T03:30:03.867Z,53.1
2022-08-02T03:31:03.841Z,53.0
2022-08-02T03:32:03.853Z,52.8
2022-08-02T03:33:03.832Z,53.2
2022-08-02T03:34:03.829Z,53.5
2022-08-02T03:35:03.862Z,53.5
2022-08-02T03:36:03.837Z,53.6
2022-08-02T03:37:03.851Z,53.6
2022-08-02T03:38:03.858Z,53.5
2022-08-02T03:39:03.838Z,53.7
2022-08-02T03:40:04.836Z,53.9
2022-08-02T03:41:03.819Z,53.9
2022-08-02T03:42:03.830Z,54.0
2022-08-02T03:43:03.855Z,54.4
2022-08-02T03:44:03.874Z,54.5
2022-08-02T03:45:07.740Z,54.7
2022-08-02T03:46:03.835Z,54.2
2022-08-02T03:47:03.823Z,54.0
2022-08-02T03:48:29.424Z,54.1
2022-08-02T03:49:03.924Z,54.1
2022-08-02T03:50:03.840Z,54.0
2022-08-02T03:51:03.830Z,54.1
2022-08-02T03:52:03.829Z,54.2
2022-08-02T03:53:03.835Z,54.4
2022-08-02T03:54:03.856Z,54.5
2022-08-02T03:55:03.854Z,54.6
2022-08-02T03:56:03.864Z,54.6
2022-08-02T03:57:03.863Z,54.6
2022-08-02T03:58:30.815Z,55.8
2022-08-02T03:59:04.654Z,54.9
2022-08-02T04:00:04.875Z,54.8
2022-08-02T04:01:04.818Z,54.7
2022-08-02T04:02:04.764Z,54.7
2022-08-02T04:03:04.805Z,54.9
2022-08-02T04:04:04.891Z,54.7
2022-08-02T04:05:04.710Z,55.2
2022-08-02T04:06:05.066Z,55.3
2022-08-02T04:07:07.557Z,55.4
2022-08-02T04:08:35.464Z,55.6
2022-08-02T04:09:04.804Z,56.2
2022-08-02T04:10:04.836Z,56.2
2022-08-02T04:11:04.759Z,56.1
2022-08-02T04:12:04.829Z,56.2
2022-08-02T04:13:05.036Z,56.3
2022-08-02T04:14:04.960Z,56.3
2022-08-02T04:15:04.870Z,56.4
2022-08-02T04:16:04.792Z,56.1
2022-08-02T04:17:04.854Z,55.6
2022-08-02T04:18:04.902Z,55.6
2022-08-02T04:19:04.795Z,55.5
2022-08-02T04:20:04.854Z,55.1
2022-08-02T04:21:05.358Z,54.6
2022-08-02T04:22:05.085Z,53.8
2022-08-02T04:23:04.727Z,53.6
2022-08-02T04:24:04.813Z,53.7
2022-08-02T04:25:04.932Z,53.4
2022-08-02T04:26:05.161Z,52.9
2022-08-02T04:27:19.398Z,52.8
2022-08-02T04:28:17.797Z,53.5
2022-08-02T04:29:05.421Z,53.2
2022-08-02T04:30:04.746Z,52.8
2022-08-02T04:31:04.890Z,52.8
2022-08-02T04:32:04.903Z,52.8
2022-08-02T04:33:05.030Z,53.4
2022-08-02T04:34:04.878Z,53.7
2022-08-02T04:35:19.356Z,53.9
2022-08-02T04:36:04.739Z,54.0
2022-08-02T04:37:04.790Z,54.2
2022-08-02T04:38:08.601Z,54.5
2022-08-02T04:39:04.795Z,54.5
2022-08-02T04:41:36.419Z,56.3
2022-08-02T04:42:04.109Z,55.2
2022-08-02T04:43:05.787Z,54.9
2022-08-02T04:44:04.118Z,54.7
2022-08-02T04:45:04.098Z,54.7
2022-08-02T04:46:04.152Z,54.3
2022-08-02T04:47:06.707Z,54.0
2022-08-02T04:48:05.296Z,54.4
2022-08-02T04:49:05.239Z,54.6
2022-08-02T04:50:05.121Z,54.5
2022-08-02T04:51:04.223Z,54.2
2022-08-02T04:52:04.225Z,54.3
2022-08-02T04:53:04.192Z,53.9
2022-08-02T04:54:09.106Z,54.2
2022-08-02T04:55:04.125Z,54.2
2022-08-02T04:56:04.109Z,53.8
2022-08-02T04:57:04.130Z,53.4
2022-08-02T04:58:18.346Z,53.7
2022-08-02T04:59:04.126Z,54.2
2022-08-02T05:00:04.169Z,53.9
2022-08-02T05:01:04.195Z,54.1
2022-08-02T05:02:04.158Z,54.1
2022-08-02T05:03:04.120Z,54.2
2022-08-02T05:04:04.186Z,54.2
2022-08-02T05:05:08.325Z,54.4
2022-08-02T05:06:04.152Z,54.9
2022-08-02T05:07:04.145Z,55.0
2022-08-02T05:08:04.124Z,55.2
2022-08-02T05:09:04.160Z,55.6
2022-08-02T05:10:04.146Z,55.1
2022-08-02T05:11:04.127Z,55.2
2022-08-02T05:12:04.129Z,54.7
2022-08-02T05:13:04.123Z,55.9
2022-08-02T05:14:04.138Z,55.0
2022-08-02T05:15:04.174Z,55.2
2022-08-02T05:16:04.165Z,54.5
2022-08-02T05:17:04.114Z,54.5
2022-08-02T05:18:04.175Z,54.5
2022-08-02T05:19:04.160Z,54.1
2022-08-02T05:20:04.134Z,53.9
2022-08-02T05:21:04.204Z,54.5
2022-08-02T05:22:04.119Z,55.2
2022-08-02T05:23:04.121Z,55.0
2022-08-02T05:24:04.127Z,54.8
2022-08-02T05:25:04.141Z,54.5
2022-08-02T05:26:04.120Z,55.1
2022-08-02T05:27:21.148Z,54.9
2022-08-02T05:28:08.276Z,54.6
2022-08-02T05:29:04.130Z,54.6
2022-08-02T05:30:04.142Z,54.6
2022-08-02T05:31:04.145Z,54.7
2022-08-02T05:32:04.122Z,54.7
2022-08-02T05:34:54.388Z,56.5
2022-08-02T05:35:05.143Z,56.2
2022-08-02T05:36:04.075Z,55.6
2022-08-02T05:37:04.079Z,55.2
2022-08-02T05:38:04.078Z,55.3
2022-08-02T05:39:04.918Z,55.0
2022-08-02T05:40:04.067Z,54.8
2022-08-02T05:41:04.111Z,54.8
2022-08-02T05:42:04.067Z,54.5
2022-08-02T05:43:04.070Z,54.2
2022-08-02T05:44:04.067Z,54.0
2022-08-02T05:45:04.072Z,54.0
2022-08-02T05:46:04.086Z,53.9
2022-08-02T05:47:04.067Z,54.1
2022-08-02T05:48:04.097Z,54.1
2022-08-02T05:49:04.133Z,54.1
2022-08-02T05:50:04.066Z,54.1
2022-08-02T05:51:04.110Z,54.1
2022-08-02T05:52:04.145Z,53.8
2022-08-02T05:53:04.068Z,53.7
2022-08-02T05:54:04.059Z,53.8
2022-08-02T05:55:04.080Z,53.5
2022-08-02T05:56:08.316Z,53.6
2022-08-02T05:57:04.064Z,53.7
2022-08-02T05:58:05.079Z,53.8
2022-08-02T05:59:04.131Z,53.9
2022-08-02T06:00:04.135Z,53.6
2022-08-02T06:01:04.089Z,53.7
2022-08-02T06:02:04.126Z,53.6
2022-08-02T06:03:04.080Z,53.8
2022-08-02T06:04:05.213Z,53.8
2022-08-02T06:05:04.074Z,53.4
2022-08-02T06:06:05.923Z,53.6
2022-08-02T06:07:05.427Z,53.5
2022-08-02T06:08:04.125Z,53.5
2022-08-02T06:09:04.074Z,53.5
2022-08-02T06:10:04.111Z,53.5
2022-08-02T06:11:05.404Z,53.3
2022-08-02T06:12:04.080Z,53.7
2022-08-02T06:13:04.093Z,53.9
2022-08-02T06:14:04.114Z,53.8
2022-08-02T06:15:04.070Z,53.9
2022-08-02T06:16:05.076Z,54.4
2022-08-02T06:17:04.115Z,54.5
2022-08-02T06:18:04.069Z,54.8
2022-08-02T06:19:04.111Z,54.9
2022-08-02T06:20:04.064Z,55.0
2022-08-02T06:22:35.919Z,55.1
2022-08-02T06:24:11.964Z,58.3
2022-08-02T06:24:15.936Z,59.4
2022-08-02T06:25:04.070Z,56.6
2022-08-02T06:26:04.075Z,55.9
2022-08-02T06:27:04.106Z,55.5
2022-08-02T06:28:04.086Z,55.1
2022-08-02T06:29:04.079Z,54.8
2022-08-02T06:30:04.071Z,54.4
2022-08-02T06:31:04.074Z,54.1
2022-08-02T06:32:04.078Z,54.0
2022-08-02T06:33:11.126Z,54.1
2022-08-02T06:34:10.815Z,54.3
2022-08-02T06:35:04.935Z,54.0
2022-08-02T06:36:05.093Z,54.0
2022-08-02T06:37:04.968Z,53.7
2022-08-02T06:38:05.032Z,53.6
2022-08-02T06:39:05.051Z,53.6
2022-08-02T06:40:04.977Z,53.5
2022-08-02T06:41:04.982Z,53.4
2022-08-02T06:42:04.999Z,53.1
2022-08-02T06:43:05.001Z,53.3
2022-08-02T06:44:40.625Z,53.4
2022-08-02T06:45:05.008Z,54.3
2022-08-02T06:46:54.370Z,53.9
2022-08-02T06:47:14.619Z,56.2
2022-08-02T06:48:05.000Z,54.0
2022-08-02T06:49:05.084Z,53.9
2022-08-02T06:50:05.702Z,53.9
2022-08-02T06:51:05.087Z,53.8
2022-08-02T06:52:05.097Z,53.6
2022-08-02T06:53:05.082Z,53.9
2022-08-02T06:54:05.129Z,54.7
2022-08-02T06:55:04.986Z,55.3
2022-08-02T06:56:05.119Z,55.3
2022-08-02T06:57:05.074Z,55.6
2022-08-02T06:58:05.094Z,55.6
2022-08-02T06:59:06.175Z,55.3
2022-08-02T07:00:05.119Z,55.7
2022-08-02T07:01:04.981Z,55.5
2022-08-02T07:02:05.450Z,55.3
2022-08-02T07:03:04.814Z,55.5
2022-08-02T07:04:04.892Z,55.1
2022-08-02T07:05:05.100Z,54.6
2022-08-02T07:06:04.917Z,54.5
2022-08-02T07:07:04.871Z,54.4
2022-08-02T07:08:04.901Z,54.8
2022-08-02T07:09:20.507Z,54.8
2022-08-02T07:10:05.099Z,54.8
2022-08-02T07:11:04.896Z,54.4
2022-08-02T07:12:04.954Z,53.8
2022-08-02T07:13:04.906Z,53.8
2022-08-02T07:14:05.066Z,53.9
2022-08-02T07:15:04.887Z,53.6
2022-08-02T07:17:54.736Z,54.8
2022-08-02T07:18:06.161Z,54.6
2022-08-02T07:19:06.099Z,53.4
2022-08-02T07:20:05.057Z,53.1
2022-08-02T07:21:05.001Z,53.0
2022-08-02T07:22:04.994Z,52.7
2022-08-02T07:23:04.541Z,52.4
2022-08-02T07:24:04.914Z,52.7
2022-08-02T07:25:04.884Z,52.6
2022-08-02T07:26:06.034Z,52.2
2022-08-02T07:27:12.609Z,52.1
2022-08-02T07:28:03.907Z,51.8
2022-08-02T07:29:03.924Z,51.9
2022-08-02T07:30:10.596Z,51.9
2022-08-02T07:31:05.033Z,51.7
2022-08-02T07:32:04.289Z,51.6
2022-08-02T07:33:04.296Z,51.7
2022-08-02T07:34:04.274Z,51.7
2022-08-02T07:35:07.012Z,51.7
2022-08-02T07:36:04.711Z,51.4
2022-08-02T07:37:04.555Z,51.2
2022-08-02T07:38:04.291Z,51.3
2022-08-02T07:39:04.867Z,51.1
2022-08-02T07:40:07.544Z,50.8
2022-08-02T07:41:04.280Z,50.6
2022-08-02T07:42:04.285Z,50.3
2022-08-02T07:43:04.558Z,50.1
2022-08-02T07:44:04.293Z,49.9
2022-08-02T07:45:04.299Z,49.8
2022-08-02T07:46:04.309Z,50.3
2022-08-02T07:47:04.316Z,50.0
2022-08-02T07:48:04.297Z,49.9
2022-08-02T07:49:04.355Z,50.0
2022-08-02T07:50:04.284Z,49.8
2022-08-02T07:51:04.314Z,49.9
2022-08-02T07:52:04.289Z,50.0
2022-08-02T07:53:04.324Z,50.0
2022-08-02T07:54:04.845Z,50.0
2022-08-02T07:55:04.312Z,49.9
2022-08-02T07:56:04.861Z,49.7
2022-08-02T07:57:04.287Z,49.4
2022-08-02T07:58:04.312Z,49.1
2022-08-02T07:59:04.299Z,48.8
2022-08-02T08:00:04.310Z,48.8
2022-08-02T08:01:04.358Z,48.7
2022-08-02T08:02:04.355Z,49.0
2022-08-02T08:03:04.315Z,48.7
2022-08-02T08:04:04.327Z,48.5
2022-08-02T08:05:04.307Z,48.3
2022-08-02T08:06:05.152Z,48.2
2022-08-02T08:07:05.349Z,48.1
2022-08-02T08:08:04.317Z,48.2
2022-08-02T08:09:04.310Z,48.1
2022-08-02T08:10:04.445Z,47.8
2022-08-02T08:11:04.311Z,47.3
2022-08-02T08:12:04.286Z,47.0
2022-08-02T08:13:04.302Z,47.2
2022-08-02T08:14:04.337Z,47.1
2022-08-02T08:15:04.306Z,47.0
2022-08-02T08:16:04.312Z,46.7
2022-08-02T08:17:04.305Z,46.4
2022-08-02T08:18:04.296Z,46.6
2022-08-02T08:19:04.299Z,46.2
2022-08-02T08:20:30.777Z,46.0
2022-08-02T08:21:04.831Z,44.6
2022-08-02T08:22:04.872Z,44.8
2022-08-02T08:23:04.903Z,42.8
2022-08-02T08:24:04.874Z,43.2
2022-08-02T08:25:04.911Z,43.2
2022-08-02T08:26:04.934Z,43.6
2022-08-02T08:27:05.391Z,43.1
2022-08-02T08:28:04.965Z,43.7
2022-08-02T08:29:05.046Z,44.5
2022-08-02T08:30:05.094Z,43.8
2022-08-02T08:31:05.019Z,42.8
2022-08-02T08:32:04.932Z,42.8
2022-08-02T08:33:04.894Z,43.0
2022-08-02T08:34:04.937Z,43.5
2022-08-02T08:35:05.021Z,43.1
2022-08-02T08:36:04.859Z,43.0
2022-08-02T08:37:04.908Z,43.4
2022-08-02T08:38:07.733Z,44.0
2022-08-02T08:39:04.888Z,43.5
2022-08-02T08:40:05.054Z,43.0
2022-08-02T08:41:04.983Z,43.6
2022-08-02T08:42:04.911Z,43.8
2022-08-02T08:43:04.994Z,43.6
2022-08-02T08:44:04.976Z,43.2
2022-08-02T08:45:04.939Z,43.5
2022-08-02T08:46:04.911Z,43.4
2022-08-02T08:47:04.869Z,42.4
2022-08-02T08:48:04.970Z,41.8
2022-08-02T08:49:04.974Z,41.4
2022-08-02T08:50:05.063Z,41.8
2022-08-02T08:51:04.995Z,41.8
2022-08-02T08:52:04.845Z,41.3
2022-08-02T08:53:05.098Z,41.5
2022-08-02T08:54:04.940Z,41.8
2022-08-02T08:55:04.906Z,41.2
2022-08-02T08:56:05.154Z,41.7
2022-08-02T08:57:04.989Z,42.4
2022-08-02T08:58:04.945Z,41.3
2022-08-02T08:59:05.073Z,40.8
2022-08-02T09:00:04.957Z,40.6
2022-08-02T09:02:54.699Z,42.0
2022-08-02T09:03:05.297Z,41.7
2022-08-02T09:04:04.604Z,41.0
2022-08-02T09:05:04.435Z,40.7
2022-08-02T09:06:05.004Z,40.7
2022-08-02T09:07:05.327Z,40.9
2022-08-02T09:08:04.523Z,40.5
2022-08-02T09:09:05.220Z,40.4
2022-08-02T09:10:04.859Z,40.8
2022-08-02T09:11:04.362Z,41.2
2022-08-02T09:12:04.850Z,41.1
2022-08-02T09:13:04.470Z,41.0
2022-08-02T09:14:04.698Z,41.3
2022-08-02T09:15:04.440Z,41.1
2022-08-02T09:16:12.432Z,40.9
2022-08-02T09:17:04.385Z,41.1
2022-08-02T09:18:04.502Z,40.9
2022-08-02T09:19:07.801Z,40.9
2022-08-02T09:20:04.984Z,40.8
2022-08-02T09:21:04.563Z,39.9
2022-08-02T09:22:05.450Z,40.1
2022-08-02T09:23:04.365Z,38.7
2022-08-02T09:24:04.398Z,39.6
2022-08-02T09:25:04.751Z,39.6
2022-08-02T09:26:07.453Z,39.8
2022-08-02T09:27:04.622Z,40.0
2022-08-02T09:28:04.857Z,40.3
2022-08-02T09:29:05.225Z,40.4
2022-08-02T09:30:12.333Z,40.5
2022-08-02T09:31:04.653Z,40.6
2022-08-02T09:32:04.867Z,40.7
2022-08-02T09:33:05.455Z,40.6
2022-08-02T09:34:04.607Z,40.6
2022-08-02T09:35:04.614Z,40.2
2022-08-02T09:36:07.857Z,40.5
2022-08-02T09:37:04.387Z,39.6
2022-08-02T09:38:04.765Z,39.7
2022-08-02T09:39:05.227Z,39.3
2022-08-02T09:40:04.984Z,39.5
2022-08-02T09:41:04.385Z,39.5
2022-08-02T09:42:04.514Z,39.8
2022-08-02T09:43:05.232Z,40.2
2022-08-02T09:44:06.515Z,37.2
2022-08-02T09:45:05.230Z,37.8
2022-08-02T09:46:04.734Z,37.8
2022-08-02T09:47:31.212Z,38.6
2022-08-02T09:48:04.944Z,37.9
2022-08-02T09:49:04.958Z,38.3
2022-08-02T09:50:04.984Z,37.9
2022-08-02T09:51:04.953Z,38.2
2022-08-02T09:52:04.934Z,38.7
2022-08-02T09:53:04.911Z,37.0
2022-08-02T09:54:09.055Z,37.8
2022-08-02T09:55:05.050Z,38.3
2022-08-02T09:56:04.936Z,38.4
2022-08-02T09:57:04.936Z,38.8
2022-08-02T09:58:05.138Z,38.5
2022-08-02T09:59:04.998Z,38.3
2022-08-02T10:00:05.486Z,37.3
2022-08-02T10:01:05.757Z,36.8
2022-08-02T10:02:05.011Z,37.3
2022-08-02T10:03:05.625Z,37.5
2022-08-02T10:04:05.038Z,37.2
2022-08-02T10:05:05.652Z,37.4
2022-08-02T10:06:04.996Z,37.9
2022-08-02T10:07:04.988Z,38.3
2022-08-02T10:08:04.880Z,38.5
2022-08-02T10:09:04.933Z,38.6
2022-08-02T10:10:05.143Z,38.7
2022-08-02T10:11:04.949Z,38.8
2022-08-02T10:12:04.977Z,39.0
2022-08-02T10:13:05.161Z,39.0
2022-08-02T10:14:04.887Z,39.1
2022-08-02T10:15:04.955Z,39.2
2022-08-02T10:16:04.923Z,39.2
2022-08-02T10:17:04.889Z,39.3
2022-08-02T10:18:22.550Z,39.3
2022-08-02T10:19:05.160Z,39.6
2022-08-02T10:20:05.641Z,39.5
2022-08-02T10:21:05.646Z,39.5
2022-08-02T10:22:05.162Z,39.5
2022-08-02T10:23:04.930Z,39.6
2022-08-02T10:24:04.947Z,39.6
2022-08-02T10:25:05.019Z,39.6
2022-08-02T10:26:04.969Z,39.6
2022-08-02T10:27:04.907Z,39.7
2022-08-02T10:28:05.747Z,39.7
2022-08-02T10:30:54.796Z,40.9
2022-08-02T10:31:05.018Z,40.5
2022-08-02T10:32:04.701Z,40.0
2022-08-02T10:33:04.750Z,39.9
2022-08-02T10:34:04.685Z,39.9
2022-08-02T10:35:19.911Z,39.9
2022-08-02T10:36:07.659Z,40.0
2022-08-02T10:37:05.000Z,40.0
2022-08-02T10:38:05.300Z,39.9
2022-08-02T10:39:05.302Z,39.9
2022-08-02T10:40:05.302Z,40.0
2022-08-02T10:41:04.980Z,39.9
2022-08-02T10:42:05.085Z,40.0
2022-08-02T10:43:05.198Z,40.0
2022-08-02T10:44:04.886Z,39.9
2022-08-02T10:45:05.048Z,40.0
2022-08-02T10:46:05.303Z,40.0
2022-08-02T10:47:04.725Z,40.0
2022-08-02T10:48:05.075Z,40.0
2022-08-02T10:49:24.019Z,40.0
2022-08-02T10:50:05.342Z,40.3
2022-08-02T10:51:05.145Z,40.1
2022-08-02T10:52:04.992Z,40.0
2022-08-02T10:53:05.080Z,40.1
2022-08-02T10:54:05.333Z,40.0
2022-08-02T10:55:04.551Z,40.0
2022-08-02T10:56:04.701Z,40.0
2022-08-02T10:57:04.954Z,40.0
2022-08-02T10:58:04.884Z,40.0
2022-08-02T10:59:05.385Z,40.0
2022-08-02T11:00:05.316Z,40.0
2022-08-02T11:01:05.093Z,40.0
2022-08-02T11:02:05.035Z,40.0
2022-08-02T11:03:05.512Z,40.0
2022-08-02T11:04:09.767Z,40.1
2022-08-02T11:05:04.558Z,40.1
2022-08-02T11:06:05.332Z,40.1
2022-08-02T11:07:05.396Z,40.1
2022-08-02T11:08:05.310Z,40.1
2022-08-02T11:09:05.239Z,40.1
2022-08-02T11:10:05.074Z,40.1
2022-08-02T11:11:04.941Z,40.1
2022-08-02T11:14:16.676Z,41.3
2022-08-02T11:15:07.728Z,40.3
2022-08-02T11:16:09.114Z,40.3
2022-08-02T11:17:04.414Z,40.2
2022-08-02T11:18:04.959Z,40.1
2022-08-02T11:19:06.781Z,40.1
2022-08-02T11:20:04.366Z,40.0
2022-08-02T11:21:04.362Z,40.1
2022-08-02T11:22:05.199Z,40.1
2022-08-02T11:23:04.393Z,40.1
2022-08-02T11:24:04.382Z,40.1
2022-08-02T11:25:04.362Z,40.1
2022-08-02T11:26:10.693Z,40.1
2022-08-02T11:27:04.670Z,40.1
2022-08-02T11:28:04.542Z,40.1
2022-08-02T11:29:04.397Z,40.1
2022-08-02T11:30:04.351Z,40.1
2022-08-02T11:31:04.376Z,40.1
2022-08-02T11:32:04.361Z,40.0
2022-08-02T11:33:04.396Z,40.0
2022-08-02T11:34:09.194Z,40.1
2022-08-02T11:35:04.520Z,40.1
2022-08-02T11:36:04.383Z,40.1
2022-08-02T11:37:04.405Z,40.1
2022-08-02T11:38:04.361Z,40.0
2022-08-02T11:39:04.392Z,40.1
2022-08-02T11:40:04.407Z,40.1
2022-08-02T11:41:06.258Z,40.1
2022-08-02T11:42:05.218Z,40.1
2022-08-02T11:43:04.374Z,40.0
2022-08-02T11:44:04.362Z,40.0
2022-08-02T11:45:04.416Z,40.0
2022-08-02T11:46:04.381Z,39.9
2022-08-02T11:47:04.368Z,39.9
2022-08-02T11:48:04.367Z,39.9
2022-08-02T11:49:04.426Z,39.9
2022-08-02T11:50:05.313Z,40.0
2022-08-02T11:51:04.393Z,40.0
2022-08-02T11:52:04.428Z,40.0
2022-08-02T11:53:04.406Z,40.0
2022-08-02T11:54:04.377Z,40.0
2022-08-02T11:55:04.375Z,40.0
2022-08-02T11:56:04.384Z,40.0
2022-08-02T11:57:04.380Z,40.1
2022-08-02T11:58:05.593Z,40.0
2022-08-02T11:59:04.400Z,40.1
2022-08-02T12:00:04.372Z,40.0
2022-08-02T12:02:54.689Z,41.1
2022-08-02T12:03:04.338Z,40.8
2022-08-02T12:04:05.896Z,40.2
2022-08-02T12:05:04.328Z,40.1
2022-08-02T12:06:06.574Z,40.1
2022-08-02T12:07:04.278Z,40.1
2022-08-02T12:08:04.301Z,40.1
2022-08-02T12:09:04.297Z,40.0
2022-08-02T12:10:04.305Z,40.1
2022-08-02T12:11:04.277Z,40.1
2022-08-02T12:12:04.285Z,40.1
2022-08-02T12:13:04.324Z,40.1
2022-08-02T12:14:04.300Z,40.1
2022-08-02T12:15:04.289Z,40.0
2022-08-02T12:16:08.597Z,40.0
2022-08-02T12:17:05.436Z,40.0
2022-08-02T12:18:04.296Z,39.9
2022-08-02T12:19:04.313Z,40.0
2022-08-02T12:20:04.293Z,40.0
2022-08-02T12:21:04.284Z,40.0
2022-08-02T12:22:04.302Z,40.0
2022-08-02T12:23:04.291Z,39.9
2022-08-02T12:24:04.317Z,40.0
2022-08-02T12:25:04.315Z,40.0
2022-08-02T12:26:04.281Z,40.1
2022-08-02T12:27:04.292Z,40.2
2022-08-02T12:28:04.325Z,40.2
2022-08-02T12:29:04.282Z,40.2
2022-08-02T12:30:04.307Z,40.2
2022-08-02T12:31:05.403Z,40.2
2022-08-02T12:32:04.303Z,40.2
2022-08-02T12:33:04.355Z,40.2
2022-08-02T12:34:04.284Z,40.3
2022-08-02T12:35:04.283Z,40.3
2022-08-02T12:36:04.309Z,40.3
2022-08-02T12:37:04.311Z,40.3
2022-08-02T12:38:04.289Z,40.3
2022-08-02T12:39:04.297Z,40.3
2022-08-02T12:40:04.373Z,40.3
2022-08-02T12:41:04.295Z,40.3
2022-08-02T12:42:04.288Z,40.5
2022-08-02T12:43:05.144Z,40.6
2022-08-02T12:44:04.285Z,40.6
2022-08-02T12:45:04.303Z,40.6
2022-08-02T12:46:04.283Z,40.6
2022-08-02T12:47:04.401Z,40.3
2022-08-02T12:48:04.335Z,40.2
2022-08-02T12:49:17.882Z,39.9
2022-08-02T12:52:00.079Z,41.0
2022-08-02T12:52:07.512Z,41.0
2022-08-02T12:53:03.721Z,40.1
2022-08-02T12:54:03.712Z,40.0
2022-08-02T12:55:03.727Z,39.9
2022-08-02T12:56:04.071Z,39.9
2022-08-02T12:57:03.712Z,39.9
2022-08-02T12:58:03.736Z,39.9
2022-08-02T12:59:03.737Z,39.9
2022-08-02T13:00:03.778Z,39.9
2022-08-02T13:01:03.726Z,39.8
2022-08-02T13:02:03.781Z,39.9
2022-08-02T13:03:04.590Z,39.9
2022-08-02T13:04:09.144Z,39.8
2022-08-02T13:05:03.712Z,39.8
2022-08-02T13:06:12.212Z,39.7
2022-08-02T13:07:03.710Z,39.9
2022-08-02T13:08:03.708Z,39.7
2022-08-02T13:09:03.712Z,39.7
2022-08-02T13:10:03.881Z,39.6
2022-08-02T13:11:03.714Z,39.6
2022-08-02T13:12:03.718Z,39.5
2022-08-02T13:13:03.733Z,39.5
2022-08-02T13:14:03.730Z,39.5
2022-08-02T13:15:03.778Z,39.5
2022-08-02T13:16:03.716Z,39.5
2022-08-02T13:17:03.713Z,39.4
2022-08-02T13:18:03.758Z,39.4
2022-08-02T13:19:03.707Z,39.4
2022-08-02T13:20:03.748Z,39.3
2022-08-02T13:21:03.717Z,39.3
2022-08-02T13:22:04.181Z,39.3
2022-08-02T13:23:04.318Z,39.3
2022-08-02T13:24:03.719Z,39.3
2022-08-02T13:25:03.702Z,39.3
2022-08-02T13:26:03.717Z,39.2
2022-08-02T13:27:07.879Z,39.2
2022-08-02T13:28:03.780Z,39.2
2022-08-02T13:29:03.721Z,39.0